DAL5246 KABE-KATL
Flight info
| Callsign | DAL5246 |
|---|---|
| Flight time | 1h 52m |
| Altitude | 38000 |
| Route | ETX LRP EMI J48 MOL FLASK OZZZI2 |
| Aircraft | B752/M-SDE2E3FGHIJ3J4J7RWXY/LB1 |
Departure
| Time | 2026-05-01 11:29 |
|---|---|
| Airport | Lehigh Valley International Airport (KABE) |
Arrival
| Time | 2026-05-01 13:21 |
|---|---|
| Airport | Hartsfield Jackson Atlanta International Airport (KATL) |
| Time | Latitude | Longitude | Altitude | Speed | Heading |
|---|---|---|---|---|---|
| 2026-05-01 11:12 | 40.65315 | -75.43528 | 377 ft | 0 kts | 201° |
| 2026-05-01 11:22 | 40.65321 | -75.43526 | 377 ft | 2 kts | 189° |
| 2026-05-01 11:22 | 40.65336 | -75.43524 | 377 ft | 2 kts | 183° |
| 2026-05-01 11:22 | 40.65351 | -75.43523 | 378 ft | 2 kts | 186° |
| 2026-05-01 11:22 | 40.65366 | -75.43520 | 378 ft | 2 kts | 185° |
| 2026-05-01 11:23 | 40.65380 | -75.43519 | 378 ft | 2 kts | 186° |
| 2026-05-01 11:23 | 40.65395 | -75.43516 | 378 ft | 2 kts | 185° |
| 2026-05-01 11:23 | 40.65410 | -75.43515 | 379 ft | 1 kts | 185° |
| 2026-05-01 11:23 | 40.65417 | -75.43512 | 379 ft | 0 kts | 229° |
| 2026-05-01 11:24 | 40.65420 | -75.43508 | 379 ft | 0 kts | 227° |
| 2026-05-01 11:25 | 40.65397 | -75.43542 | 379 ft | 9 kts | 230° |
| 2026-05-01 11:25 | 40.65351 | -75.43632 | 380 ft | 11 kts | 255° |
| 2026-05-01 11:26 | 40.65375 | -75.43688 | 381 ft | 5 kts | 2° |
| 2026-05-01 11:26 | 40.65507 | -75.43507 | 380 ft | 31 kts | 51° |
| 2026-05-01 11:26 | 40.65653 | -75.43273 | 379 ft | 33 kts | 51° |
| 2026-05-01 11:27 | 40.65799 | -75.43031 | 380 ft | 33 kts | 51° |
| 2026-05-01 11:27 | 40.65853 | -75.42965 | 380 ft | 7 kts | 12° |
| 2026-05-01 11:27 | 40.65908 | -75.42996 | 382 ft | 10 kts | 311° |
| 2026-05-01 11:27 | 40.65896 | -75.43099 | 382 ft | 15 kts | 234° |
| 2026-05-01 11:28 | 40.65735 | -75.43368 | 383 ft | 69 kts | 231° |
| 2026-05-01 11:28 | 40.65288 | -75.44102 | 384 ft | 133 kts | 231° |
| 2026-05-01 11:28 | 40.64621 | -75.45240 | 594 ft | 173 kts | 234° |
| 2026-05-01 11:29 | 40.63429 | -75.47696 | 2618 ft | 152 kts | 260° |
| 2026-05-01 11:29 | 40.63223 | -75.49249 | 2870 ft | 187 kts | 262° |
| 2026-05-01 11:29 | 40.62617 | -75.52451 | 4197 ft | 182 kts | 268° |
| 2026-05-01 11:30 | 40.62386 | -75.54179 | 4536 ft | 201 kts | 262° |
| 2026-05-01 11:30 | 40.62006 | -75.56027 | 4879 ft | 223 kts | 258° |
| 2026-05-01 11:30 | 40.61507 | -75.58038 | 5376 ft | 239 kts | 256° |
| 2026-05-01 11:30 | 40.60936 | -75.60116 | 6081 ft | 247 kts | 255° |
| 2026-05-01 11:31 | 40.60311 | -75.62289 | 6599 ft | 263 kts | 253° |
| 2026-05-01 11:31 | 40.59649 | -75.64500 | 7499 ft | 264 kts | 253° |
| 2026-05-01 11:31 | 40.58966 | -75.66753 | 8366 ft | 267 kts | 253° |
| 2026-05-01 11:31 | 40.58081 | -75.68906 | 9194 ft | 277 kts | 235° |
| 2026-05-01 11:32 | 40.56756 | -75.70739 | 10021 ft | 282 kts | 232° |
| 2026-05-01 11:32 | 40.55387 | -75.72609 | 10621 ft | 292 kts | 232° |
| 2026-05-01 11:32 | 40.53928 | -75.74584 | 11035 ft | 311 kts | 231° |
| 2026-05-01 11:32 | 40.52386 | -75.76650 | 11424 ft | 330 kts | 230° |
| 2026-05-01 11:33 | 40.50734 | -75.78849 | 11823 ft | 348 kts | 230° |
| 2026-05-01 11:33 | 40.49001 | -75.81148 | 12374 ft | 360 kts | 230° |
| 2026-05-01 11:33 | 40.47258 | -75.83451 | 13352 ft | 358 kts | 230° |
| 2026-05-01 11:33 | 40.45491 | -75.85789 | 14049 ft | 364 kts | 230° |
| 2026-05-01 11:34 | 40.43722 | -75.88124 | 15016 ft | 362 kts | 230° |
| 2026-05-01 11:34 | 40.41945 | -75.90473 | 15702 ft | 367 kts | 230° |
| 2026-05-01 11:34 | 40.40145 | -75.92849 | 16434 ft | 369 kts | 230° |
| 2026-05-01 11:34 | 40.38347 | -75.95220 | 17185 ft | 370 kts | 230° |
| 2026-05-01 11:35 | 40.36537 | -75.97606 | 17876 ft | 372 kts | 231° |
| 2026-05-01 11:35 | 40.34708 | -76.00015 | 18531 ft | 374 kts | 230° |
| 2026-05-01 11:35 | 40.32885 | -76.02412 | 19323 ft | 373 kts | 230° |
| 2026-05-01 11:35 | 40.31032 | -76.04851 | 19798 ft | 380 kts | 231° |
| 2026-05-01 11:36 | 40.29182 | -76.07282 | 20522 ft | 379 kts | 231° |
| 2026-05-01 11:36 | 40.27310 | -76.09740 | 21105 ft | 382 kts | 231° |
| 2026-05-01 11:36 | 40.25436 | -76.12194 | 21754 ft | 383 kts | 231° |
| 2026-05-01 11:36 | 40.23552 | -76.14666 | 22340 ft | 385 kts | 231° |
| 2026-05-01 11:37 | 40.21667 | -76.17134 | 22913 ft | 386 kts | 231° |
| 2026-05-01 11:37 | 40.19781 | -76.19601 | 23401 ft | 389 kts | 231° |
| 2026-05-01 11:37 | 40.17855 | -76.22119 | 23916 ft | 391 kts | 231° |
| 2026-05-01 11:37 | 40.15947 | -76.24610 | 24427 ft | 393 kts | 231° |
| 2026-05-01 11:38 | 40.14009 | -76.27142 | 24806 ft | 397 kts | 231° |
| 2026-05-01 11:38 | 40.12045 | -76.29668 | 25333 ft | 398 kts | 229° |
| 2026-05-01 11:38 | 40.09898 | -76.32037 | 25597 ft | 406 kts | 227° |
| 2026-05-01 11:38 | 40.07777 | -76.34405 | 26136 ft | 405 kts | 227° |
| 2026-05-01 11:39 | 40.05626 | -76.36795 | 26510 ft | 408 kts | 228° |
| 2026-05-01 11:39 | 40.03470 | -76.39187 | 26834 ft | 412 kts | 227° |
| 2026-05-01 11:39 | 40.01289 | -76.41603 | 27300 ft | 412 kts | 227° |
| 2026-05-01 11:39 | 39.99094 | -76.44036 | 27677 ft | 414 kts | 228° |
| 2026-05-01 11:40 | 39.96903 | -76.46461 | 28108 ft | 414 kts | 227° |
| 2026-05-01 11:40 | 39.94712 | -76.48884 | 28306 ft | 420 kts | 228° |
| 2026-05-01 11:40 | 39.92501 | -76.51325 | 28883 ft | 415 kts | 228° |
| 2026-05-01 11:40 | 39.90294 | -76.53763 | 28986 ft | 423 kts | 228° |
| 2026-05-01 11:41 | 39.88045 | -76.56243 | 29428 ft | 422 kts | 229° |
| 2026-05-01 11:41 | 39.85796 | -76.58722 | 29693 ft | 424 kts | 229° |
| 2026-05-01 11:41 | 39.83548 | -76.61197 | 30021 ft | 425 kts | 229° |
| 2026-05-01 11:41 | 39.81307 | -76.63663 | 30279 ft | 428 kts | 229° |
| 2026-05-01 11:42 | 39.79046 | -76.66145 | 30816 ft | 422 kts | 228° |
| 2026-05-01 11:42 | 39.76824 | -76.68582 | 31139 ft | 422 kts | 229° |
| 2026-05-01 11:42 | 39.74564 | -76.71064 | 31304 ft | 425 kts | 229° |
| 2026-05-01 11:42 | 39.72335 | -76.73502 | 31929 ft | 416 kts | 229° |
| 2026-05-01 11:43 | 39.70123 | -76.75929 | 32059 ft | 420 kts | 229° |
| 2026-05-01 11:43 | 39.67907 | -76.78352 | 32465 ft | 416 kts | 229° |
| 2026-05-01 11:43 | 39.65722 | -76.80741 | 32786 ft | 413 kts | 230° |
| 2026-05-01 11:44 | 39.61331 | -76.85539 | 33290 ft | 411 kts | 230° |
| 2026-05-01 11:44 | 39.59181 | -76.87882 | 33538 ft | 410 kts | 231° |
| 2026-05-01 11:44 | 39.56970 | -76.90296 | 33744 ft | 412 kts | 230° |
| 2026-05-01 11:44 | 39.54815 | -76.92640 | 34087 ft | 410 kts | 231° |
| 2026-05-01 11:45 | 39.52634 | -76.95017 | 34291 ft | 410 kts | 230° |
| 2026-05-01 11:45 | 39.50449 | -76.97392 | 34572 ft | 410 kts | 230° |
| 2026-05-01 11:45 | 39.48275 | -76.99709 | 34961 ft | 407 kts | 230° |
| 2026-05-01 11:45 | 39.46066 | -77.02036 | 35129 ft | 407 kts | 229° |
| 2026-05-01 11:46 | 39.41700 | -77.06634 | 35335 ft | 403 kts | 229° |
| 2026-05-01 11:46 | 39.39556 | -77.08890 | 35575 ft | 402 kts | 230° |
| 2026-05-01 11:46 | 39.37386 | -77.11171 | 35851 ft | 401 kts | 229° |
| 2026-05-01 11:47 | 39.35231 | -77.13434 | 36100 ft | 399 kts | 230° |
| 2026-05-01 11:47 | 39.33080 | -77.15691 | 36348 ft | 397 kts | 230° |
| 2026-05-01 11:47 | 39.30945 | -77.17929 | 36614 ft | 395 kts | 230° |
| 2026-05-01 11:47 | 39.28814 | -77.20160 | 36898 ft | 393 kts | 230° |
| 2026-05-01 11:48 | 39.26709 | -77.22366 | 37126 ft | 390 kts | 229° |
| 2026-05-01 11:48 | 39.24618 | -77.24554 | 37372 ft | 387 kts | 230° |
| 2026-05-01 11:48 | 39.22543 | -77.26721 | 37612 ft | 384 kts | 229° |
| 2026-05-01 11:48 | 39.20476 | -77.28878 | 37864 ft | 380 kts | 230° |
| 2026-05-01 11:49 | 39.18428 | -77.31016 | 38037 ft | 377 kts | 229° |
| 2026-05-01 11:49 | 39.16389 | -77.33144 | 38035 ft | 378 kts | 230° |
| 2026-05-01 11:49 | 39.12304 | -77.37402 | 38044 ft | 380 kts | 230° |
| 2026-05-01 11:50 | 39.08185 | -77.41687 | 38045 ft | 381 kts | 229° |
| 2026-05-01 11:50 | 39.04053 | -77.45976 | 38058 ft | 382 kts | 230° |
| 2026-05-01 11:51 | 38.99909 | -77.50273 | 38047 ft | 384 kts | 230° |
| 2026-05-01 11:51 | 38.95747 | -77.54581 | 38037 ft | 385 kts | 229° |
| 2026-05-01 11:52 | 38.91574 | -77.58891 | 38037 ft | 386 kts | 230° |
| 2026-05-01 11:52 | 38.87397 | -77.63203 | 38050 ft | 386 kts | 230° |
| 2026-05-01 11:53 | 38.83225 | -77.67499 | 38041 ft | 388 kts | 230° |
| 2026-05-01 11:53 | 38.79015 | -77.71832 | 38048 ft | 390 kts | 230° |
| 2026-05-01 11:54 | 38.74766 | -77.76196 | 38051 ft | 391 kts | 230° |
| 2026-05-01 11:54 | 38.70525 | -77.80545 | 38045 ft | 393 kts | 230° |
| 2026-05-01 11:55 | 38.66271 | -77.84899 | 38052 ft | 393 kts | 229° |
| 2026-05-01 11:55 | 38.62596 | -77.89820 | 38051 ft | 377 kts | 243° |
| 2026-05-01 11:56 | 38.59642 | -77.95265 | 38045 ft | 375 kts | 244° |
| 2026-05-01 11:56 | 38.56595 | -78.00685 | 38053 ft | 377 kts | 243° |
| 2026-05-01 11:57 | 38.53482 | -78.06085 | 38051 ft | 377 kts | 243° |
| 2026-05-01 11:57 | 38.50356 | -78.11437 | 38033 ft | 378 kts | 242° |
| 2026-05-01 11:58 | 38.47212 | -78.16779 | 38033 ft | 378 kts | 243° |
| 2026-05-01 11:59 | 38.42482 | -78.24792 | 38037 ft | 378 kts | 242° |
| 2026-05-01 11:59 | 38.39308 | -78.30148 | 38034 ft | 377 kts | 242° |
| 2026-05-01 12:00 | 38.34581 | -78.38110 | 38042 ft | 377 kts | 243° |
| 2026-05-01 12:01 | 38.29870 | -78.46023 | 38028 ft | 375 kts | 243° |
| 2026-05-01 12:01 | 38.26728 | -78.51289 | 38036 ft | 374 kts | 242° |
| 2026-05-01 12:02 | 38.23574 | -78.56564 | 38036 ft | 374 kts | 243° |
| 2026-05-01 12:02 | 38.20441 | -78.61801 | 38039 ft | 372 kts | 243° |
| 2026-05-01 12:03 | 38.17317 | -78.67011 | 38058 ft | 372 kts | 243° |
| 2026-05-01 12:03 | 38.14187 | -78.72230 | 38053 ft | 373 kts | 242° |
| 2026-05-01 12:04 | 38.11023 | -78.77489 | 38053 ft | 374 kts | 243° |
| 2026-05-01 12:04 | 38.07893 | -78.82684 | 38055 ft | 374 kts | 243° |
| 2026-05-01 12:05 | 38.04745 | -78.87902 | 38052 ft | 373 kts | 243° |
| 2026-05-01 12:05 | 38.00013 | -78.95733 | 38039 ft | 373 kts | 243° |
| 2026-05-01 12:06 | 37.96851 | -79.00951 | 38055 ft | 373 kts | 243° |
| 2026-05-01 12:06 | 37.93706 | -79.06133 | 38043 ft | 373 kts | 242° |
| 2026-05-01 12:07 | 37.90520 | -79.11298 | 38045 ft | 376 kts | 240° |
| 2026-05-01 12:07 | 37.87024 | -79.16199 | 38023 ft | 376 kts | 240° |
| 2026-05-01 12:08 | 37.83505 | -79.21117 | 38025 ft | 376 kts | 239° |
| 2026-05-01 12:08 | 37.80009 | -79.25987 | 38010 ft | 375 kts | 239° |
| 2026-05-01 12:09 | 37.76512 | -79.30843 | 38018 ft | 375 kts | 240° |
| 2026-05-01 12:09 | 37.73013 | -79.35698 | 38020 ft | 373 kts | 240° |
| 2026-05-01 12:10 | 37.67784 | -79.42934 | 38024 ft | 371 kts | 240° |
| 2026-05-01 12:11 | 37.62572 | -79.50134 | 38022 ft | 371 kts | 240° |
| 2026-05-01 12:11 | 37.59096 | -79.54921 | 38012 ft | 371 kts | 239° |
| 2026-05-01 12:12 | 37.55615 | -79.59713 | 38014 ft | 371 kts | 240° |
| 2026-05-01 12:12 | 37.52140 | -79.64489 | 38016 ft | 371 kts | 240° |
| 2026-05-01 12:13 | 37.48643 | -79.69289 | 38033 ft | 373 kts | 239° |
| 2026-05-01 12:13 | 37.45156 | -79.74064 | 38084 ft | 374 kts | 240° |
| 2026-05-01 12:14 | 37.41623 | -79.78898 | 38062 ft | 374 kts | 240° |
| 2026-05-01 12:14 | 37.38114 | -79.83690 | 38058 ft | 375 kts | 239° |
| 2026-05-01 12:15 | 37.34595 | -79.88488 | 38064 ft | 373 kts | 239° |
| 2026-05-01 12:15 | 37.31095 | -79.93254 | 38055 ft | 373 kts | 239° |
| 2026-05-01 12:16 | 37.27571 | -79.98046 | 38061 ft | 373 kts | 239° |
| 2026-05-01 12:16 | 37.24060 | -80.02814 | 38051 ft | 372 kts | 239° |
| 2026-05-01 12:17 | 37.20567 | -80.07552 | 38036 ft | 373 kts | 239° |
| 2026-05-01 12:17 | 37.17044 | -80.12320 | 38039 ft | 372 kts | 239° |
| 2026-05-01 12:18 | 37.13538 | -80.17058 | 38035 ft | 372 kts | 239° |
| 2026-05-01 12:18 | 37.10015 | -80.21813 | 38029 ft | 371 kts | 240° |
| 2026-05-01 12:19 | 37.06520 | -80.26525 | 38032 ft | 370 kts | 239° |
| 2026-05-01 12:19 | 37.03019 | -80.31238 | 38021 ft | 370 kts | 240° |
| 2026-05-01 12:20 | 36.99440 | -80.35873 | 38021 ft | 372 kts | 238° |
| 2026-05-01 12:20 | 36.95844 | -80.40479 | 38025 ft | 371 kts | 239° |
| 2026-05-01 12:21 | 36.92229 | -80.45103 | 38020 ft | 372 kts | 238° |
| 2026-05-01 12:21 | 36.88641 | -80.49686 | 38006 ft | 371 kts | 238° |
| 2026-05-01 12:22 | 36.85039 | -80.54278 | 38010 ft | 370 kts | 239° |
| 2026-05-01 12:22 | 36.81455 | -80.58845 | 38011 ft | 370 kts | 239° |
| 2026-05-01 12:23 | 36.77840 | -80.63444 | 38013 ft | 370 kts | 239° |
| 2026-05-01 12:23 | 36.74253 | -80.67999 | 38042 ft | 370 kts | 238° |
| 2026-05-01 12:24 | 36.70660 | -80.72558 | 38043 ft | 370 kts | 238° |
| 2026-05-01 12:24 | 36.67036 | -80.77148 | 38039 ft | 372 kts | 238° |
| 2026-05-01 12:25 | 36.61592 | -80.84030 | 38036 ft | 373 kts | 238° |
| 2026-05-01 12:26 | 36.57981 | -80.88585 | 38030 ft | 373 kts | 238° |
| 2026-05-01 12:26 | 36.52525 | -80.95458 | 38028 ft | 373 kts | 238° |
| 2026-05-01 12:27 | 36.47076 | -81.02309 | 38026 ft | 372 kts | 238° |
| 2026-05-01 12:28 | 36.41634 | -81.09132 | 38035 ft | 370 kts | 238° |
| 2026-05-01 12:29 | 36.36212 | -81.15920 | 38028 ft | 371 kts | 238° |
| 2026-05-01 12:29 | 36.30769 | -81.22726 | 38038 ft | 371 kts | 238° |
| 2026-05-01 12:30 | 36.25300 | -81.29555 | 38039 ft | 373 kts | 239° |
| 2026-05-01 12:31 | 36.21668 | -81.34084 | 38023 ft | 371 kts | 239° |
| 2026-05-01 12:31 | 36.18018 | -81.38628 | 38028 ft | 372 kts | 238° |
| 2026-05-01 12:32 | 36.14378 | -81.43152 | 38014 ft | 372 kts | 238° |
| 2026-05-01 12:32 | 36.08911 | -81.49939 | 38022 ft | 372 kts | 238° |
| 2026-05-01 12:33 | 36.05275 | -81.54439 | 38020 ft | 371 kts | 238° |
| 2026-05-01 12:33 | 36.01626 | -81.58957 | 38029 ft | 372 kts | 238° |
| 2026-05-01 12:34 | 35.97958 | -81.63486 | 38023 ft | 372 kts | 238° |
| 2026-05-01 12:34 | 35.94299 | -81.68003 | 38057 ft | 373 kts | 237° |
| 2026-05-01 12:35 | 35.90616 | -81.72540 | 38056 ft | 375 kts | 237° |
| 2026-05-01 12:35 | 35.86940 | -81.77062 | 38042 ft | 375 kts | 237° |
| 2026-05-01 12:36 | 35.83248 | -81.81596 | 38039 ft | 376 kts | 238° |
| 2026-05-01 12:36 | 35.79561 | -81.86112 | 38045 ft | 374 kts | 238° |
| 2026-05-01 12:37 | 35.75821 | -81.90598 | 38041 ft | 375 kts | 237° |
| 2026-05-01 12:37 | 35.72104 | -81.95049 | 38026 ft | 375 kts | 237° |
| 2026-05-01 12:38 | 35.68386 | -81.99493 | 38030 ft | 374 kts | 237° |
| 2026-05-01 12:38 | 35.64654 | -82.03951 | 38029 ft | 375 kts | 238° |
| 2026-05-01 12:39 | 35.60900 | -82.08430 | 38026 ft | 375 kts | 237° |
| 2026-05-01 12:39 | 35.57166 | -82.12876 | 38025 ft | 376 kts | 237° |
| 2026-05-01 12:40 | 35.53420 | -82.17326 | 38024 ft | 374 kts | 238° |
| 2026-05-01 12:40 | 35.49697 | -82.21748 | 38016 ft | 375 kts | 237° |
| 2026-05-01 12:41 | 35.45947 | -82.26199 | 38014 ft | 374 kts | 237° |
| 2026-05-01 12:41 | 35.42223 | -82.30651 | 38009 ft | 370 kts | 238° |
| 2026-05-01 12:42 | 35.38631 | -82.35130 | 38010 ft | 371 kts | 238° |
| 2026-05-01 12:42 | 35.35009 | -82.39629 | 38017 ft | 372 kts | 238° |
| 2026-05-01 12:43 | 35.31377 | -82.44138 | 38012 ft | 373 kts | 238° |
| 2026-05-01 12:43 | 35.27738 | -82.48647 | 38009 ft | 373 kts | 238° |
| 2026-05-01 12:44 | 35.24094 | -82.53154 | 38004 ft | 372 kts | 238° |
| 2026-05-01 12:45 | 35.16827 | -82.62096 | 37996 ft | 373 kts | 236° |
| 2026-05-01 12:45 | 35.12862 | -82.66309 | 38027 ft | 375 kts | 234° |
| 2026-05-01 12:46 | 35.09028 | -82.70615 | 38024 ft | 375 kts | 236° |
| 2026-05-01 12:46 | 35.05253 | -82.74977 | 38023 ft | 376 kts | 236° |
| 2026-05-01 12:47 | 35.01483 | -82.79392 | 38024 ft | 375 kts | 236° |
| 2026-05-01 12:47 | 34.97749 | -82.83786 | 38020 ft | 375 kts | 237° |
| 2026-05-01 12:48 | 34.93993 | -82.88214 | 38019 ft | 377 kts | 236° |
| 2026-05-01 12:48 | 34.90206 | -82.92605 | 38016 ft | 377 kts | 236° |
| 2026-05-01 12:49 | 34.86431 | -82.96975 | 38008 ft | 377 kts | 236° |
| 2026-05-01 12:49 | 34.82622 | -83.01380 | 38013 ft | 377 kts | 236° |
| 2026-05-01 12:50 | 34.78838 | -83.05750 | 38009 ft | 377 kts | 236° |
| 2026-05-01 12:50 | 34.75022 | -83.10152 | 38009 ft | 377 kts | 236° |
| 2026-05-01 12:51 | 34.71246 | -83.14503 | 38000 ft | 378 kts | 236° |
| 2026-05-01 12:52 | 34.65509 | -83.21102 | 38005 ft | 379 kts | 236° |
| 2026-05-01 12:52 | 34.61655 | -83.25528 | 37024 ft | 375 kts | 236° |
| 2026-05-01 12:52 | 34.59787 | -83.27648 | 35815 ft | 371 kts | 236° |
| 2026-05-01 12:53 | 34.56097 | -83.31894 | 32595 ft | 375 kts | 235° |
| 2026-05-01 12:53 | 34.54224 | -83.34064 | 30447 ft | 388 kts | 234° |
| 2026-05-01 12:53 | 34.52283 | -83.36307 | 28443 ft | 395 kts | 233° |
| 2026-05-01 12:54 | 34.50337 | -83.38535 | 27170 ft | 382 kts | 232° |
| 2026-05-01 12:54 | 34.46594 | -83.42822 | 24365 ft | 367 kts | 232° |
| 2026-05-01 12:54 | 34.44799 | -83.44871 | 23657 ft | 341 kts | 233° |
| 2026-05-01 12:55 | 34.41411 | -83.48768 | 22817 ft | 343 kts | 232° |
| 2026-05-01 12:55 | 34.39662 | -83.50777 | 22402 ft | 348 kts | 232° |
| 2026-05-01 12:55 | 34.37871 | -83.52838 | 22045 ft | 364 kts | 232° |
| 2026-05-01 12:56 | 34.36026 | -83.54948 | 21535 ft | 364 kts | 231° |
| 2026-05-01 12:56 | 34.34222 | -83.57004 | 21040 ft | 357 kts | 231° |
| 2026-05-01 12:56 | 34.32424 | -83.59051 | 20634 ft | 348 kts | 231° |
| 2026-05-01 12:56 | 34.30672 | -83.61054 | 20170 ft | 344 kts | 231° |
| 2026-05-01 12:57 | 34.28936 | -83.63024 | 19761 ft | 347 kts | 230° |
| 2026-05-01 12:57 | 34.25292 | -83.66914 | 18921 ft | 353 kts | 228° |
| 2026-05-01 12:57 | 34.23440 | -83.68884 | 18509 ft | 351 kts | 228° |
| 2026-05-01 12:58 | 34.21623 | -83.70815 | 18081 ft | 348 kts | 227° |
| 2026-05-01 12:58 | 34.19817 | -83.72736 | 17664 ft | 347 kts | 227° |
| 2026-05-01 12:58 | 34.18017 | -83.74651 | 17234 ft | 348 kts | 227° |
| 2026-05-01 12:59 | 34.14385 | -83.78508 | 16354 ft | 346 kts | 226° |
| 2026-05-01 12:59 | 34.12588 | -83.80415 | 15910 ft | 344 kts | 226° |
| 2026-05-01 12:59 | 34.09014 | -83.84210 | 15066 ft | 343 kts | 226° |
| 2026-05-01 13:00 | 34.05430 | -83.88063 | 14232 ft | 344 kts | 225° |
| 2026-05-01 13:00 | 34.03658 | -83.89964 | 13806 ft | 342 kts | 225° |
| 2026-05-01 13:01 | 34.00126 | -83.93749 | 12958 ft | 341 kts | 225° |
| 2026-05-01 13:01 | 33.98358 | -83.95641 | 12533 ft | 339 kts | 225° |
| 2026-05-01 13:01 | 33.94428 | -83.98834 | 11759 ft | 340 kts | 215° |
| 2026-05-01 13:02 | 33.92422 | -84.00282 | 11399 ft | 340 kts | 214° |
| 2026-05-01 13:07 | 33.73397 | -84.36784 | 9839 ft | 255 kts | 271° |
| 2026-05-01 13:07 | 33.73396 | -84.38924 | 9843 ft | 257 kts | 271° |
| 2026-05-01 13:07 | 33.73395 | -84.41069 | 9840 ft | 256 kts | 271° |
| 2026-05-01 13:08 | 33.73394 | -84.43195 | 9830 ft | 256 kts | 271° |
| 2026-05-01 13:08 | 33.73394 | -84.45353 | 9582 ft | 261 kts | 271° |
| 2026-05-01 13:08 | 33.73394 | -84.47536 | 9250 ft | 261 kts | 271° |
| 2026-05-01 13:08 | 33.73394 | -84.49676 | 8946 ft | 258 kts | 271° |
| 2026-05-01 13:09 | 33.73393 | -84.51828 | 8625 ft | 255 kts | 271° |
| 2026-05-01 13:09 | 33.73393 | -84.53938 | 8260 ft | 255 kts | 271° |
| 2026-05-01 13:09 | 33.73392 | -84.56082 | 7954 ft | 253 kts | 271° |
| 2026-05-01 13:09 | 33.73389 | -84.58160 | 7645 ft | 253 kts | 271° |
| 2026-05-01 13:10 | 33.73385 | -84.60268 | 7333 ft | 253 kts | 271° |
| 2026-05-01 13:10 | 33.73380 | -84.62385 | 7020 ft | 254 kts | 271° |
| 2026-05-01 13:10 | 33.73375 | -84.64504 | 6709 ft | 254 kts | 271° |
| 2026-05-01 13:10 | 33.73370 | -84.66637 | 6397 ft | 254 kts | 270° |
| 2026-05-01 13:11 | 33.73365 | -84.68735 | 6086 ft | 253 kts | 271° |
| 2026-05-01 13:11 | 33.73359 | -84.70853 | 5777 ft | 253 kts | 270° |
| 2026-05-01 13:11 | 33.73354 | -84.72974 | 5469 ft | 255 kts | 271° |
| 2026-05-01 13:11 | 33.73347 | -84.75081 | 5163 ft | 255 kts | 271° |
| 2026-05-01 13:12 | 33.73342 | -84.77235 | 4841 ft | 256 kts | 271° |
| 2026-05-01 13:12 | 33.73336 | -84.79340 | 4525 ft | 255 kts | 271° |
| 2026-05-01 13:12 | 33.73323 | -84.81473 | 4232 ft | 254 kts | 268° |
| 2026-05-01 13:12 | 33.72848 | -84.83443 | 4204 ft | 242 kts | 237° |
| 2026-05-01 13:13 | 33.71648 | -84.84750 | 4214 ft | 229 kts | 204° |
| 2026-05-01 13:13 | 33.70143 | -84.85022 | 4216 ft | 216 kts | 168° |
| 2026-05-01 13:13 | 33.68880 | -84.84242 | 4225 ft | 199 kts | 131° |
| 2026-05-01 13:13 | 33.68074 | -84.82940 | 4187 ft | 188 kts | 119° |
| 2026-05-01 13:14 | 33.67487 | -84.81567 | 4200 ft | 185 kts | 110° |
| 2026-05-01 13:14 | 33.67052 | -84.80086 | 4213 ft | 190 kts | 104° |
| 2026-05-01 13:14 | 33.66716 | -84.78557 | 4203 ft | 189 kts | 101° |
| 2026-05-01 13:14 | 33.66448 | -84.77021 | 4194 ft | 186 kts | 98° |
| 2026-05-01 13:15 | 33.66226 | -84.75487 | 4200 ft | 186 kts | 97° |
| 2026-05-01 13:15 | 33.66034 | -84.73966 | 4223 ft | 185 kts | 96° |
| 2026-05-01 13:15 | 33.65856 | -84.72416 | 4204 ft | 186 kts | 95° |
| 2026-05-01 13:15 | 33.65691 | -84.70888 | 4199 ft | 185 kts | 95° |
| 2026-05-01 13:16 | 33.65534 | -84.69370 | 4199 ft | 186 kts | 94° |
| 2026-05-01 13:16 | 33.65380 | -84.67825 | 4202 ft | 187 kts | 95° |
| 2026-05-01 13:16 | 33.65226 | -84.66277 | 4198 ft | 185 kts | 94° |
| 2026-05-01 13:17 | 33.64983 | -84.61625 | 3846 ft | 194 kts | 88° |
| 2026-05-01 13:17 | 33.64964 | -84.60016 | 3644 ft | 197 kts | 88° |
| 2026-05-01 13:18 | 33.64952 | -84.56729 | 3163 ft | 199 kts | 88° |
| 2026-05-01 13:18 | 33.64951 | -84.55062 | 2884 ft | 198 kts | 88° |
| 2026-05-01 13:18 | 33.64950 | -84.53464 | 2601 ft | 187 kts | 88° |
| 2026-05-01 13:18 | 33.64951 | -84.51938 | 2369 ft | 175 kts | 88° |
| 2026-05-01 13:19 | 33.64948 | -84.50517 | 2117 ft | 165 kts | 88° |
| 2026-05-01 13:19 | 33.64949 | -84.49183 | 1894 ft | 156 kts | 87° |
| 2026-05-01 13:19 | 33.64952 | -84.46724 | 1497 ft | 141 kts | 88° |
| 2026-05-01 13:20 | 33.64952 | -84.45582 | 1313 ft | 133 kts | 88° |
| 2026-05-01 13:20 | 33.64946 | -84.44456 | 1167 ft | 138 kts | 89° |
| 2026-05-01 13:20 | 33.64954 | -84.43302 | 1026 ft | 139 kts | 89° |
| 2026-05-01 13:21 | 33.64947 | -84.41814 | 980 ft | 44 kts | 102° |
| 2026-05-01 13:21 | 33.64861 | -84.41619 | 980 ft | 13 kts | 157° |
| 2026-05-01 13:21 | 33.64794 | -84.41679 | 977 ft | 14 kts | 262° |
| 2026-05-01 13:21 | 33.64789 | -84.41803 | 977 ft | 14 kts | 270° |
| 2026-05-01 13:22 | 33.64791 | -84.41922 | 979 ft | 13 kts | 271° |
| 2026-05-01 13:22 | 33.64791 | -84.42026 | 981 ft | 11 kts | 272° |
| 2026-05-01 13:22 | 33.64800 | -84.42117 | 983 ft | 9 kts | 279° |
| 2026-05-01 13:22 | 33.64780 | -84.42201 | 984 ft | 16 kts | 230° |
| 2026-05-01 13:23 | 33.64611 | -84.42234 | 984 ft | 30 kts | 186° |
| 2026-05-01 13:23 | 33.64540 | -84.42416 | 990 ft | 25 kts | 271° |
| 2026-05-01 13:23 | 33.64544 | -84.42611 | 998 ft | 21 kts | 264° |
| 2026-05-01 13:23 | 33.64505 | -84.42754 | 1003 ft | 16 kts | 209° |
| 2026-05-01 13:24 | 33.64415 | -84.42757 | 1004 ft | 10 kts | 154° |
| 2026-05-01 13:24 | 33.64328 | -84.42735 | 1004 ft | 16 kts | 177° |
| 2026-05-01 13:24 | 33.64190 | -84.42734 | 1005 ft | 23 kts | 179° |
| 2026-05-01 13:25 | 33.64008 | -84.42690 | 1007 ft | 7 kts | 98° |
| 2026-05-01 13:25 | 33.64006 | -84.42630 | 1006 ft | 0 kts | 89° |
| 2026-05-01 13:25 | 33.64006 | -84.42626 | 1006 ft | 0 kts | 89° |